Time,TemperatureF,DewpointF,PressureIn,WindDirection,WindDirectionDegrees,WindSpeedMPH,WindSpeedGustMPH,Humidity,HourlyPrecipIn,Conditions,Clouds,dailyrainin,SoftwareType,DateUTC
2013-05-01 00:01:00,58.0,52.5,29.05,ESE,113,0.2,1.5,81,0.00,,,0.01,proprietary,2013-05-01 04:01:00,
2013-05-01 00:02:00,58.0,52.4,29.05,North,0,0.0,0.0,81,0.00,,,0.01,proprietary,2013-05-01 04:02:00,
2013-05-01 00:06:00,57.8,52.5,29.05,North,0,0.0,0.0,82,0.00,,,0.00,proprietary,2013-05-01 04:06:00,
2013-05-01 00:08:00,57.7,52.3,29.05,ESE,109,0.6,1.3,82,0.00,,,0.00,proprietary,2013-05-01 04:08:00,
2013-05-01 00:09:00,57.6,52.4,29.05,ESE,111,1.0,2.7,82,0.00,,,0.00,proprietary,2013-05-01 04:09:00,
2013-05-01 00:14:00,57.8,52.4,29.05,North,0,0.0,0.0,82,0.00,,,0.00,proprietary,2013-05-01 04:14:00,
2013-05-01 00:19:00,57.3,52.2,29.05,North,0,0.0,0.0,82,0.00,,,0.00,proprietary,2013-05-01 04:19:00,
2013-05-01 00:24:00,56.5,51.7,29.05,North,0,0.0,0.0,83,0.00,,,0.00,proprietary,2013-05-01 04:24:00,
2013-05-01 00:29:00,55.9,51.6,29.05,North,0,0.0,0.0,85,0.00,,,0.00,proprietary,2013-05-01 04:29:00,
2013-05-01 00:34:00,55.1,51.3,29.06,North,0,0.0,0.0,87,0.00,,,0.00,proprietary,2013-05-01 04:34:00,
2013-05-01 00:39:00,54.5,51.3,29.06,North,0,0.0,0.0,88,0.00,,,0.00,proprietary,2013-05-01 04:39:00,
2013-05-01 00:44:00,54.6,51.7,29.06,SE,125,0.3,1.7,89,0.00,,,0.00,proprietary,2013-05-01 04:44:00,
2013-05-01 00:49:00,54.6,51.1,29.06,SE,124,1.4,1.6,87,0.00,,,0.00,proprietary,2013-05-01 04:49:00,
2013-05-01 00:54:00,54.2,51.2,29.06,North,0,0.0,0.0,89,0.00,,,0.00,proprietary,2013-05-01 04:54:00,
2013-05-01 00:59:00,54.1,51.1,29.06,SE,124,1.4,1.5,89,0.00,,,0.00,proprietary,2013-05-01 04:59:00,
2013-05-01 01:04:00,54.3,51.5,29.06,North,0,0.0,0.0,90,0.00,,,0.00,proprietary,2013-05-01 05:04:00,
2013-05-01 01:09:00,54.2,51.7,29.07,SE,124,0.3,1.4,91,0.00,,,0.00,proprietary,2013-05-01 05:09:00,
2013-05-01 01:14:00,54.6,52.0,29.07,ESE,123,0.2,1.3,90,0.00,,,0.00,proprietary,2013-05-01 05:14:00,
2013-05-01 01:19:00,54.3,51.6,29.07,ESE,122,0.6,1.5,90,0.00,,,0.00,proprietary,2013-05-01 05:19:00,
2013-05-01 01:24:00,54.8,52.2,29.07,SE,127,1.7,2.1,90,0.00,,,0.00,proprietary,2013-05-01 05:24:00,
2013-05-01 01:29:00,55.2,52.0,29.07,SE,127,1.4,1.9,88,0.00,,,0.00,proprietary,2013-05-01 05:29:00,
2013-05-01 01:34:00,55.5,51.9,29.07,SE,133,1.8,2.3,87,0.00,,,0.00,proprietary,2013-05-01 05:34:00,
2013-05-01 01:39:00,55.6,52.0,29.07,SE,129,2.1,2.5,87,0.00,,,0.00,proprietary,2013-05-01 05:39:00,
2013-05-01 01:44:00,56.0,52.2,29.07,SE,125,1.2,2.5,86,0.00,,,0.00,proprietary,2013-05-01 05:44:00,
2013-05-01 01:49:00,56.2,52.0,29.07,SE,130,0.5,1.4,85,0.00,,,0.00,proprietary,2013-05-01 05:49:00,
2013-05-01 01:54:00,56.0,51.8,29.07,SE,143,1.3,2.0,85,0.00,,,0.00,proprietary,2013-05-01 05:54:00,
2013-05-01 01:59:00,55.7,51.7,29.07,SE,146,2.5,3.2,86,0.00,,,0.00,proprietary,2013-05-01 05:59:00,
2013-05-01 02:05:00,55.3,51.5,29.07,SE,145,1.2,1.5,87,0.00,,,0.00,proprietary,2013-05-01 06:05:00,
2013-05-01 02:10:00,54.9,51.5,29.07,SE,145,1.0,1.4,88,0.00,,,0.00,proprietary,2013-05-01 06:10:00,
2013-05-01 02:16:00,54.6,51.5,29.07,SE,145,1.2,1.4,89,0.00,,,0.00,proprietary,2013-05-01 06:16:00,
2013-05-01 02:21:00,54.5,51.5,29.07,SE,145,0.6,1.8,89,0.00,,,0.00,proprietary,2013-05-01 06:21:00,
2013-05-01 02:26:00,54.4,51.7,29.07,SE,145,1.3,1.6,90,0.00,,,0.00,proprietary,2013-05-01 06:26:00,
2013-05-01 02:31:00,54.3,51.9,29.07,North,0,0.0,0.0,91,0.00,,,0.00,proprietary,2013-05-01 06:31:00,
2013-05-01 02:36:00,54.1,51.8,29.07,North,0,0.0,0.0,91,0.00,,,0.00,proprietary,2013-05-01 06:36:00,
2013-05-01 02:41:00,53.7,51.1,29.07,North,0,0.0,0.0,90,0.00,,,0.00,proprietary,2013-05-01 06:41:00,
2013-05-01 02:46:00,53.2,50.8,29.07,SE,145,0.3,1.4,91,0.00,,,0.00,proprietary,2013-05-01 06:46:00,
2013-05-01 02:51:00,53.3,51.3,29.07,North,0,0.0,0.0,92,0.00,,,0.00,proprietary,2013-05-01 06:51:00,
2013-05-01 02:56:00,52.8,50.4,29.07,North,0,0.0,0.0,91,0.00,,,0.00,proprietary,2013-05-01 06:56:00,
2013-05-01 03:01:00,52.5,50.5,29.08,North,0,0.0,0.0,92,0.00,,,0.00,proprietary,2013-05-01 07:01:00,
2013-05-01 03:06:00,52.9,51.1,29.08,SE,144,1.3,1.7,93,0.00,,,0.00,proprietary,2013-05-01 07:06:00,
2013-05-01 03:11:00,53.6,51.5,29.08,SE,137,1.6,2.0,92,0.00,,,0.00,proprietary,2013-05-01 07:11:00,
2013-05-01 03:16:00,54.1,51.9,29.08,SE,140,2.4,2.7,92,0.00,,,0.00,proprietary,2013-05-01 07:16:00,
2013-05-01 03:21:00,53.6,50.9,29.08,SE,129,1.9,2.2,90,0.00,,,0.00,proprietary,2013-05-01 07:21:00,
2013-05-01 03:27:00,52.6,50.2,29.08,ESE,121,1.3,2.0,91,0.00,,,0.00,proprietary,2013-05-01 07:27:00,
2013-05-01 03:32:00,52.9,50.6,29.08,ESE,121,1.8,2.3,91,0.00,,,0.00,proprietary,2013-05-01 07:32:00,
2013-05-01 03:37:00,55.1,52.5,29.08,SE,128,3.4,4.7,90,0.00,,,0.00,proprietary,2013-05-01 07:37:00,
2013-05-01 03:42:00,56.1,52.1,29.08,SSE,149,2.5,3.0,86,0.00,,,0.00,proprietary,2013-05-01 07:42:00,
2013-05-01 03:47:00,54.1,49.7,29.08,North,0,0.0,0.0,84,0.00,,,0.00,proprietary,2013-05-01 07:47:00,
2013-05-01 03:52:00,52.2,48.8,29.08,North,0,0.0,0.0,88,0.00,,,0.00,proprietary,2013-05-01 07:52:00,
2013-05-01 03:57:00,51.9,49.7,29.09,North,0,0.0,0.0,92,0.00,,,0.00,proprietary,2013-05-01 07:57:00,
2013-05-01 04:02:00,52.0,49.9,29.09,North,0,0.0,0.0,92,0.00,,,0.00,proprietary,2013-05-01 08:02:00,
2013-05-01 04:07:00,51.7,49.6,29.09,North,0,0.0,0.0,92,0.00,,,0.00,proprietary,2013-05-01 08:07:00,
2013-05-01 04:12:00,51.3,49.5,29.09,North,0,0.0,0.0,93,0.00,,,0.00,proprietary,2013-05-01 08:12:00,
2013-05-01 04:17:00,50.8,48.9,29.09,North,0,0.0,0.0,93,0.00,,,0.00,proprietary,2013-05-01 08:17:00,
2013-05-01 04:22:00,50.8,49.4,29.09,North,0,0.0,0.0,94,0.00,,,0.00,proprietary,2013-05-01 08:22:00,
2013-05-01 04:27:00,50.2,48.6,29.09,North,0,0.0,0.0,94,0.00,,,0.00,proprietary,2013-05-01 08:27:00,
2013-05-01 04:32:00,50.1,48.6,29.09,North,0,0.0,0.0,94,0.00,,,0.00,proprietary,2013-05-01 08:32:00,
2013-05-01 04:37:00,50.0,48.8,29.09,North,0,0.0,0.0,95,0.00,,,0.00,proprietary,2013-05-01 08:37:00,
2013-05-01 04:42:00,50.5,49.5,29.09,North,0,0.0,0.0,96,0.00,,,0.00,proprietary,2013-05-01 08:42:00,
2013-05-01 04:47:00,49.9,48.8,29.09,North,0,0.0,0.0,95,0.00,,,0.00,proprietary,2013-05-01 08:47:00,
2013-05-01 04:52:00,49.9,48.9,29.09,North,0,0.0,0.0,96,0.00,,,0.00,proprietary,2013-05-01 08:52:00,
2013-05-01 04:57:00,50.1,49.1,29.09,North,0,0.0,0.0,96,0.00,,,0.00,proprietary,2013-05-01 08:57:00,
2013-05-01 05:02:00,50.1,49.2,29.09,SE,134,0.3,1.3,96,0.00,,,0.00,proprietary,2013-05-01 09:02:00,
2013-05-01 05:07:00,50.3,49.5,29.09,SE,146,2.2,2.8,96,0.00,,,0.00,proprietary,2013-05-01 09:07:00,
2013-05-01 05:12:00,50.6,49.5,29.10,SE,146,0.7,1.7,96,0.00,,,0.00,proprietary,2013-05-01 09:12:00,
2013-05-01 05:17:00,50.7,49.5,29.10,SE,140,2.5,3.1,95,0.00,,,0.00,proprietary,2013-05-01 09:17:00,
2013-05-01 05:22:00,51.2,50.0,29.10,SSW,200,1.0,1.7,95,0.00,,,0.00,proprietary,2013-05-01 09:22:00,
2013-05-01 05:27:00,51.4,49.9,29.10,SSW,192,1.2,1.7,94,0.00,,,0.00,proprietary,2013-05-01 09:27:00,
2013-05-01 05:32:00,51.3,49.7,29.10,South,174,0.7,1.4,94,0.00,,,0.00,proprietary,2013-05-01 09:32:00,
2013-05-01 05:37:00,50.9,49.2,29.11,SSE,160,2.8,3.4,93,0.00,,,0.00,proprietary,2013-05-01 09:37:00,
2013-05-01 05:42:00,50.6,49.0,29.11,SSE,158,2.4,2.8,94,0.00,,,0.00,proprietary,2013-05-01 09:42:00,
2013-05-01 05:47:00,51.1,49.9,29.11,SSE,148,2.2,3.0,95,0.00,,,0.00,proprietary,2013-05-01 09:47:00,
2013-05-01 05:52:00,51.4,49.9,29.11,SE,142,2.0,2.8,94,0.00,,,0.00,proprietary,2013-05-01 09:52:00,
2013-05-01 05:57:00,51.4,49.9,29.11,SSE,157,0.7,2.8,94,0.00,,,0.00,proprietary,2013-05-01 09:57:00,
2013-05-01 06:02:00,51.5,50.0,29.11,SSE,153,1.7,2.3,94,0.00,,,0.00,proprietary,2013-05-01 10:02:00,
2013-05-01 06:07:00,51.5,49.7,29.11,North,0,0.0,0.0,93,0.00,,,0.00,proprietary,2013-05-01 10:07:00,
2013-05-01 06:12:00,51.4,49.6,29.12,North,0,0.0,0.0,93,0.00,,,0.00,proprietary,2013-05-01 10:12:00,
2013-05-01 06:17:00,51.1,49.5,29.12,North,6,1.6,1.8,94,0.00,,,0.00,proprietary,2013-05-01 10:17:00,
2013-05-01 06:22:00,51.2,49.8,29.12,North,0,0.0,0.0,94,0.00,,,0.00,proprietary,2013-05-01 10:22:00,
2013-05-01 06:27:00,52.0,50.6,29.12,North,0,0.0,0.0,94,0.00,,,0.00,proprietary,2013-05-01 10:27:00,
2013-05-01 06:32:00,51.8,50.1,29.12,North,0,0.0,0.0,93,0.00,,,0.00,proprietary,2013-05-01 10:32:00,
2013-05-01 06:37:00,52.3,51.0,29.13,North,0,0.0,0.0,95,0.00,,,0.00,proprietary,2013-05-01 10:37:00,
2013-05-01 06:42:00,52.6,50.9,29.13,North,0,0.0,0.0,94,0.00,,,0.00,proprietary,2013-05-01 10:42:00,
2013-05-01 06:47:00,52.7,50.8,29.13,North,0,0.0,0.0,93,0.00,,,0.00,proprietary,2013-05-01 10:47:00,
2013-05-01 06:52:00,53.1,51.1,29.13,North,0,0.0,0.0,93,0.00,,,0.00,proprietary,2013-05-01 10:52:00,
2013-05-01 06:57:00,53.3,51.0,29.14,North,0,0.0,0.0,91,0.00,,,0.00,proprietary,2013-05-01 10:57:00,
2013-05-01 07:02:00,52.9,50.4,29.14,North,0,0.0,0.0,91,0.00,,,0.00,proprietary,2013-05-01 11:02:00,
2013-05-01 07:07:00,52.1,50.0,29.14,North,356,1.8,1.9,92,0.00,,,0.00,proprietary,2013-05-01 11:07:00,
2013-05-01 07:12:00,51.6,49.4,29.15,North,2,1.8,2.0,92,0.00,,,0.00,proprietary,2013-05-01 11:12:00,
2013-05-01 07:17:00,51.5,49.6,29.15,North,0,0.0,0.0,93,0.00,,,0.00,proprietary,2013-05-01 11:17:00,
2013-05-01 07:22:00,52.2,50.3,29.15,North,0,0.0,0.0,93,0.00,,,0.00,proprietary,2013-05-01 11:22:00,
2013-05-01 07:27:00,53.5,51.4,29.15,North,0,0.0,0.0,92,0.00,,,0.00,proprietary,2013-05-01 11:27:00,
2013-05-01 07:32:00,54.4,52.1,29.15,North,0,0.0,0.0,91,0.00,,,0.00,proprietary,2013-05-01 11:32:00,
2013-05-01 07:37:00,55.0,52.4,29.16,North,0,0.0,0.0,90,0.00,,,0.00,proprietary,2013-05-01 11:37:00,
2013-05-01 07:42:00,55.8,52.8,29.16,East,79,0.2,1.4,89,0.00,,,0.00,proprietary,2013-05-01 11:42:00,
2013-05-01 07:47:00,56.3,53.0,29.16,SE,135,1.0,1.4,88,0.00,,,0.00,proprietary,2013-05-01 11:47:00,
2013-05-01 07:52:00,57.7,53.4,29.16,ESE,120,0.6,1.5,85,0.00,,,0.00,proprietary,2013-05-01 11:52:00,
2013-05-01 07:57:00,59.1,53.3,29.17,SE,144,1.4,2.0,80,0.00,,,0.00,proprietary,2013-05-01 11:57:00,
2013-05-01 08:02:00,59.2,53.3,29.17,SE,130,2.1,2.8,81,0.00,,,0.00,proprietary,2013-05-01 12:02:00,
2013-05-01 08:07:00,59.4,53.3,29.17,SE,135,2.7,3.6,80,0.00,,,0.00,proprietary,2013-05-01 12:07:00,
2013-05-01 08:12:00,59.4,53.4,29.17,ESE,121,2.1,2.3,80,0.00,,,0.00,proprietary,2013-05-01 12:12:00,
2013-05-01 08:17:00,59.5,54.0,29.17,SE,144,3.1,3.5,81,0.00,,,0.00,proprietary,2013-05-01 12:17:00,
2013-05-01 08:22:00,59.8,53.6,29.17,SE,140,3.7,4.7,79,0.00,,,0.00,proprietary,2013-05-01 12:22:00,
2013-05-01 08:27:00,60.3,54.0,29.18,SE,141,3.8,5.3,79,0.00,,,0.00,proprietary,2013-05-01 12:27:00,
2013-05-01 08:32:00,60.8,53.9,29.18,SE,138,4.4,6.0,77,0.00,,,0.00,proprietary,2013-05-01 12:32:00,
2013-05-01 08:37:00,61.2,53.9,29.17,SE,130,5.4,7.5,76,0.00,,,0.00,proprietary,2013-05-01 12:37:00,
2013-05-01 08:42:00,61.4,53.9,29.17,SSE,151,4.4,5.9,76,0.00,,,0.00,proprietary,2013-05-01 12:42:00,
2013-05-01 08:47:00,61.8,54.4,29.17,SE,134,4.9,6.0,76,0.00,,,0.00,proprietary,2013-05-01 12:47:00,
2013-05-01 08:52:00,62.2,54.2,29.18,SE,130,4.6,6.7,75,0.00,,,0.00,proprietary,2013-05-01 12:52:00,
2013-05-01 08:57:00,62.8,55.1,29.18,SE,131,6.1,7.9,75,0.00,,,0.00,proprietary,2013-05-01 12:57:00,
2013-05-01 09:02:00,63.3,54.6,29.18,SSE,157,4.2,5.4,73,0.00,,,0.00,proprietary,2013-05-01 13:02:00,
2013-05-01 09:07:00,63.5,54.7,29.18,SSE,153,5.5,6.7,72,0.00,,,0.00,proprietary,2013-05-01 13:07:00,
2013-05-01 09:12:00,64.2,55.2,29.18,SE,130,5.8,7.2,72,0.00,,,0.00,proprietary,2013-05-01 13:12:00,
2013-05-01 09:17:00,64.5,54.5,29.18,SE,144,7.0,7.8,69,0.00,,,0.00,proprietary,2013-05-01 13:17:00,
2013-05-01 09:22:00,65.1,54.3,29.18,SE,135,5.9,6.9,68,0.00,,,0.00,proprietary,2013-05-01 13:22:00,
2013-05-01 09:27:00,65.3,54.6,29.18,SSE,160,4.5,6.0,68,0.00,,,0.00,proprietary,2013-05-01 13:27:00,
2013-05-01 09:32:00,65.9,54.9,29.18,SSE,155,6.3,7.8,67,0.00,,,0.00,proprietary,2013-05-01 13:32:00,
2013-05-01 09:37:00,65.9,54.6,29.18,SSE,148,6.4,7.9,66,0.00,,,0.00,proprietary,2013-05-01 13:37:00,
2013-05-01 09:42:00,66.1,54.9,29.19,SSE,159,6.1,7.1,66,0.00,,,0.00,proprietary,2013-05-01 13:42:00,
2013-05-01 09:47:00,66.4,54.9,29.19,SSE,166,6.5,7.9,66,0.00,,,0.00,proprietary,2013-05-01 13:47:00,
2013-05-01 09:52:00,66.6,55.1,29.19,SE,140,6.4,7.4,66,0.00,,,0.00,proprietary,2013-05-01 13:52:00,
2013-05-01 09:57:00,66.8,54.6,29.19,SE,139,5.0,6.6,64,0.00,,,0.00,proprietary,2013-05-01 13:57:00,
2013-05-01 10:02:00,67.0,54.7,29.19,SE,141,5.2,6.2,64,0.00,,,0.00,proprietary,2013-05-01 14:02:00,
2013-05-01 10:07:00,67.7,55.2,29.19,SSE,148,5.3,6.7,64,0.00,,,0.00,proprietary,2013-05-01 14:07:00,
2013-05-01 10:12:00,68.2,55.5,29.19,SE,144,6.9,8.7,63,0.00,,,0.00,proprietary,2013-05-01 14:12:00,
2013-05-01 10:17:00,68.2,55.1,29.19,SSE,159,5.4,6.2,62,0.00,,,0.00,proprietary,2013-05-01 14:17:00,
2013-05-01 10:22:00,68.9,55.6,29.19,SE,137,4.5,6.2,62,0.00,,,0.00,proprietary,2013-05-01 14:22:00,
2013-05-01 10:27:00,69.3,54.7,29.19,SSE,153,4.1,5.3,59,0.00,,,0.00,proprietary,2013-05-01 14:27:00,
2013-05-01 10:32:00,69.8,55.8,29.19,SE,145,5.3,6.1,61,0.00,,,0.00,proprietary,2013-05-01 14:32:00,
2013-05-01 10:37:00,70.0,56.0,29.19,SSE,159,5.6,7.1,61,0.00,,,0.00,proprietary,2013-05-01 14:37:00,
2013-05-01 10:42:00,70.3,56.0,29.19,SE,136,5.8,6.8,60,0.00,,,0.00,proprietary,2013-05-01 14:42:00,
2013-05-01 10:47:00,70.8,56.4,29.20,SE,137,5.8,7.3,60,0.00,,,0.00,proprietary,2013-05-01 14:47:00,
2013-05-01 10:52:00,71.0,55.6,29.20,ESE,120,3.3,5.4,58,0.00,,,0.00,proprietary,2013-05-01 14:52:00,
2013-05-01 10:57:00,71.5,55.4,29.20,SE,125,5.0,6.8,56,0.00,,,0.00,proprietary,2013-05-01 14:57:00,
2013-05-01 11:02:00,71.8,56.3,29.20,South,177,7.4,9.3,58,0.00,,,0.00,proprietary,2013-05-01 15:02:00,
2013-05-01 11:07:00,72.7,55.4,29.20,ESE,120,5.8,7.3,54,0.00,,,0.00,proprietary,2013-05-01 15:07:00,
2013-05-01 11:12:00,72.7,55.7,29.19,SE,128,5.7,8.1,55,0.00,,,0.00,proprietary,2013-05-01 15:12:00,
2013-05-01 11:17:00,72.5,56.2,29.20,SE,129,5.7,8.1,56,0.00,,,0.00,proprietary,2013-05-01 15:17:00,
2013-05-01 11:22:00,72.7,55.3,29.20,SE,139,7.0,9.2,54,0.00,,,0.00,proprietary,2013-05-01 15:22:00,
2013-05-01 11:27:00,73.1,55.0,29.20,SE,137,5.6,7.7,53,0.00,,,0.00,proprietary,2013-05-01 15:27:00,
2013-05-01 11:32:00,73.1,54.8,29.20,ESE,117,5.2,8.0,52,0.00,,,0.00,proprietary,2013-05-01 15:32:00,
2013-05-01 11:37:00,73.5,54.9,29.20,SSE,155,6.8,8.3,52,0.00,,,0.00,proprietary,2013-05-01 15:37:00,
2013-05-01 11:42:00,73.9,55.4,29.20,SE,145,6.4,8.6,52,0.00,,,0.00,proprietary,2013-05-01 15:42:00,
2013-05-01 11:47:00,74.6,56.0,29.20,SE,146,7.4,8.6,52,0.00,,,0.00,proprietary,2013-05-01 15:47:00,
2013-05-01 11:52:00,74.2,55.6,29.20,SSE,147,8.8,10.9,52,0.00,,,0.00,proprietary,2013-05-01 15:52:00,
2013-05-01 11:57:00,74.2,55.1,29.20,ESE,109,4.3,6.1,51,0.00,,,0.00,proprietary,2013-05-01 15:57:00,
2013-05-01 12:02:00,74.5,55.3,29.20,SE,145,5.6,6.7,51,0.00,,,0.00,proprietary,2013-05-01 16:02:00,
2013-05-01 12:08:00,75.3,56.4,29.20,SE,132,6.5,10.3,51,0.00,,,0.00,proprietary,2013-05-01 16:08:00,
2013-05-01 12:13:00,75.2,55.7,29.19,SE,132,6.9,9.9,50,0.00,,,0.00,proprietary,2013-05-01 16:13:00,
2013-05-01 12:18:00,75.6,56.5,29.19,SE,142,6.7,9.3,51,0.00,,,0.00,proprietary,2013-05-01 16:18:00,
2013-05-01 12:23:00,75.5,55.4,29.19,SE,133,3.9,5.4,49,0.00,,,0.00,proprietary,2013-05-01 16:23:00,
2013-05-01 12:28:00,75.7,56.0,29.20,SSE,151,5.3,8.7,50,0.00,,,0.00,proprietary,2013-05-01 16:28:00,
2013-05-01 12:33:00,75.5,55.6,29.20,South,172,6.5,9.4,49,0.00,,,0.00,proprietary,2013-05-01 16:33:00,
2013-05-01 12:38:00,76.0,55.9,29.20,SSE,153,5.6,7.5,49,0.00,,,0.00,proprietary,2013-05-01 16:38:00,
2013-05-01 12:43:00,76.0,55.4,29.20,SSE,149,7.8,10.5,48,0.00,,,0.00,proprietary,2013-05-01 16:43:00,
2013-05-01 12:48:00,76.4,55.0,29.20,SSE,152,3.8,6.1,47,0.00,,,0.00,proprietary,2013-05-01 16:48:00,
2013-05-01 12:53:00,77.0,55.2,29.19,SE,138,5.5,8.6,46,0.00,,,0.00,proprietary,2013-05-01 16:53:00,
2013-05-01 12:58:00,76.5,55.8,29.20,SSE,161,6.2,9.7,48,0.00,,,0.00,proprietary,2013-05-01 16:58:00,
2013-05-01 13:03:00,76.6,54.1,29.20,SE,136,5.2,8.1,45,0.00,,,0.00,proprietary,2013-05-01 17:03:00,
2013-05-01 13:08:00,77.2,55.5,29.20,SSE,150,7.7,11.0,47,0.00,,,0.00,proprietary,2013-05-01 17:08:00,
2013-05-01 13:13:00,77.2,53.9,29.19,SE,127,4.9,6.6,44,0.00,,,0.00,proprietary,2013-05-01 17:13:00,
2013-05-01 13:18:00,77.4,53.7,29.19,SE,145,6.3,8.4,43,0.00,,,0.00,proprietary,2013-05-01 17:18:00,
2013-05-01 13:23:00,77.2,55.3,29.19,SSE,151,7.3,8.9,46,0.00,,,0.00,proprietary,2013-05-01 17:23:00,
2013-05-01 13:28:00,77.4,54.7,29.19,South,190,7.6,8.8,45,0.00,,,0.00,proprietary,2013-05-01 17:28:00,
2013-05-01 13:33:00,78.3,57.0,29.19,SE,136,4.9,7.8,47,0.00,,,0.00,proprietary,2013-05-01 17:33:00,
2013-05-01 13:38:00,78.1,55.0,29.19,SSE,159,9.3,12.4,44,0.00,,,0.00,proprietary,2013-05-01 17:38:00,
2013-05-01 13:43:00,77.2,54.3,29.19,SSE,148,8.0,9.0,45,0.00,,,0.00,proprietary,2013-05-01 17:43:00,
2013-05-01 13:48:00,78.2,53.1,29.19,SE,124,4.5,6.5,41,0.00,,,0.00,proprietary,2013-05-01 17:48:00,
2013-05-01 13:53:00,78.2,55.4,29.19,South,169,5.1,7.1,45,0.00,,,0.00,proprietary,2013-05-01 17:53:00,
2013-05-01 13:58:00,78.3,54.1,29.19,SE,136,6.3,9.1,43,0.00,,,0.00,proprietary,2013-05-01 17:58:00,
2013-05-01 14:03:00,78.2,55.4,29.19,SSE,148,8.4,10.5,45,0.00,,,0.00,proprietary,2013-05-01 18:03:00,
2013-05-01 14:08:00,79.1,54.5,29.19,SSE,162,8.6,10.4,42,0.00,,,0.00,proprietary,2013-05-01 18:08:00,
2013-05-01 14:13:00,78.2,52.8,29.19,SE,145,10.6,12.6,41,0.00,,,0.00,proprietary,2013-05-01 18:13:00,
2013-05-01 14:18:00,78.3,54.2,29.19,SSE,160,6.6,9.1,43,0.00,,,0.00,proprietary,2013-05-01 18:18:00,
2013-05-01 14:23:00,78.7,54.3,29.19,SE,132,8.7,13.2,42,0.00,,,0.00,proprietary,2013-05-01 18:23:00,
2013-05-01 14:28:00,79.1,53.7,29.19,SSE,165,6.2,7.7,41,0.00,,,0.00,proprietary,2013-05-01 18:28:00,
2013-05-01 14:33:00,78.9,53.7,29.19,SE,137,5.8,8.5,41,0.00,,,0.00,proprietary,2013-05-01 18:33:00,
2013-05-01 14:38:00,79.1,54.4,29.19,SSE,151,10.1,14.9,42,0.00,,,0.00,proprietary,2013-05-01 18:38:00,
2013-05-01 14:43:00,78.8,54.0,29.19,SSE,151,8.6,10.0,42,0.00,,,0.00,proprietary,2013-05-01 18:43:00,
2013-05-01 14:48:00,79.6,54.1,29.19,SSE,168,7.9,9.9,41,0.00,,,0.00,proprietary,2013-05-01 18:48:00,
2013-05-01 14:53:00,79.6,52.9,29.19,SSE,151,10.1,13.6,39,0.00,,,0.00,proprietary,2013-05-01 18:53:00,
2013-05-01 14:58:00,79.6,53.2,29.19,SSE,163,6.6,8.9,40,0.00,,,0.00,proprietary,2013-05-01 18:58:00,
2013-05-01 15:03:00,79.3,54.2,29.18,SSE,157,8.1,10.2,41,0.00,,,0.00,proprietary,2013-05-01 19:03:00,
2013-05-01 15:08:00,80.4,54.1,29.18,SSE,160,11.3,13.4,40,0.00,,,0.00,proprietary,2013-05-01 19:08:00,
2013-05-01 15:13:00,79.3,53.6,29.18,SSE,158,9.0,10.8,40,0.00,,,0.00,proprietary,2013-05-01 19:13:00,
2013-05-01 15:18:00,80.1,54.6,29.18,SSE,168,8.3,9.7,41,0.00,,,0.00,proprietary,2013-05-01 19:18:00,
2013-05-01 15:23:00,80.4,55.6,29.18,South,177,11.9,15.1,42,0.00,,,0.00,proprietary,2013-05-01 19:23:00,
2013-05-01 15:28:00,79.9,54.4,29.18,SSE,157,11.0,13.6,41,0.00,,,0.00,proprietary,2013-05-01 19:28:00,
2013-05-01 15:33:00,79.5,54.9,29.18,South,184,10.2,13.8,42,0.00,,,0.00,proprietary,2013-05-01 19:33:00,
2013-05-01 15:38:00,80.6,54.7,29.18,SSE,160,7.5,9.4,40,0.00,,,0.00,proprietary,2013-05-01 19:38:00,
2013-05-01 15:43:00,80.7,56.0,29.18,SSE,164,9.9,12.3,42,0.00,,,0.00,proprietary,2013-05-01 19:43:00,
2013-05-01 15:48:00,80.9,55.2,29.18,SSE,165,9.5,11.4,41,0.00,,,0.00,proprietary,2013-05-01 19:48:00,
2013-05-01 15:53:00,80.5,55.0,29.18,SSE,161,10.2,13.0,41,0.00,,,0.00,proprietary,2013-05-01 19:53:00,
2013-05-01 15:58:00,80.2,54.6,29.18,SE,145,10.1,11.7,41,0.00,,,0.00,proprietary,2013-05-01 19:58:00,
2013-05-01 16:03:00,80.2,58.3,29.18,SSE,156,8.5,9.8,47,0.00,,,0.00,proprietary,2013-05-01 20:03:00,
2013-05-01 16:08:00,80.2,56.9,29.18,SE,131,5.7,6.6,44,0.00,,,0.00,proprietary,2013-05-01 20:08:00,
2013-05-01 16:13:00,79.5,57.2,29.18,East,92,7.3,10.7,46,0.00,,,0.00,proprietary,2013-05-01 20:13:00,
2013-05-01 16:18:00,80.0,56.5,29.18,East,101,4.3,7.6,44,0.00,,,0.00,proprietary,2013-05-01 20:18:00,
2013-05-01 16:23:00,80.6,57.0,29.18,SSE,151,11.0,13.1,44,0.00,,,0.00,proprietary,2013-05-01 20:23:00,
2013-05-01 16:28:00,79.2,57.0,29.18,SE,143,10.5,12.8,46,0.00,,,0.00,proprietary,2013-05-01 20:28:00,
2013-05-01 16:33:00,78.6,56.7,29.18,ESE,111,5.0,8.6,46,0.00,,,0.00,proprietary,2013-05-01 20:33:00,
2013-05-01 16:38:00,80.0,57.1,29.18,SE,127,4.7,6.9,45,0.00,,,0.00,proprietary,2013-05-01 20:38:00,
2013-05-01 16:43:00,80.0,57.5,29.18,East,99,4.6,6.2,46,0.00,,,0.00,proprietary,2013-05-01 20:43:00,
2013-05-01 16:48:00,79.7,57.1,29.18,SE,129,8.9,12.7,46,0.00,,,0.00,proprietary,2013-05-01 20:48:00,
2013-05-01 16:53:00,79.7,57.4,29.18,SE,137,9.6,12.3,46,0.00,,,0.00,proprietary,2013-05-01 20:53:00,
2013-05-01 16:58:00,80.2,57.8,29.18,SE,135,8.8,10.0,46,0.00,,,0.00,proprietary,2013-05-01 20:58:00,
2013-05-01 17:03:00,80.1,57.1,29.18,SE,124,4.7,7.6,45,0.00,,,0.00,proprietary,2013-05-01 21:03:00,
2013-05-01 17:08:00,80.1,57.7,29.18,SE,143,10.1,12.6,46,0.00,,,0.00,proprietary,2013-05-01 21:08:00,
2013-05-01 17:13:00,80.1,56.7,29.19,SE,137,7.2,8.7,44,0.00,,,0.00,proprietary,2013-05-01 21:13:00,
2013-05-01 17:18:00,80.0,56.8,29.19,SE,140,7.2,10.0,45,0.00,,,0.00,proprietary,2013-05-01 21:18:00,
2013-05-01 17:23:00,80.4,56.6,29.19,SSE,154,11.3,13.0,44,0.00,,,0.00,proprietary,2013-05-01 21:23:00,
2013-05-01 17:28:00,80.1,57.3,29.19,SE,135,9.6,13.2,45,0.00,,,0.00,proprietary,2013-05-01 21:28:00,
2013-05-01 17:33:00,79.8,57.8,29.19,SSE,150,8.1,11.1,46,0.00,,,0.00,proprietary,2013-05-01 21:33:00,
2013-05-01 17:38:00,79.6,56.0,29.19,SE,137,7.3,11.1,44,0.00,,,0.00,proprietary,2013-05-01 21:38:00,
2013-05-01 17:43:00,79.6,55.5,29.19,ESE,123,5.1,8.3,43,0.00,,,0.00,proprietary,2013-05-01 21:43:00,
2013-05-01 17:49:00,79.6,56.3,29.19,SE,133,4.8,5.9,44,0.00,,,0.00,proprietary,2013-05-01 21:49:00,
2013-05-01 17:54:00,79.9,55.7,29.19,ESE,112,3.2,4.7,43,0.00,,,0.00,proprietary,2013-05-01 21:54:00,
2013-05-01 17:59:00,79.8,56.5,29.19,SE,143,11.7,15.4,44,0.00,,,0.00,proprietary,2013-05-01 21:59:00,
2013-05-01 18:04:00,79.8,56.2,29.19,SE,144,9.2,11.3,44,0.00,,,0.00,proprietary,2013-05-01 22:04:00,
2013-05-01 18:09:00,79.7,56.2,29.19,SSE,161,10.6,12.9,44,0.00,,,0.00,proprietary,2013-05-01 22:09:00,
2013-05-01 18:14:00,80.2,56.9,29.19,SSE,152,7.4,8.3,44,0.00,,,0.00,proprietary,2013-05-01 22:14:00,
2013-05-01 18:19:00,79.8,56.5,29.19,SE,134,6.4,8.8,44,0.00,,,0.00,proprietary,2013-05-01 22:19:00,
2013-05-01 18:24:00,79.6,55.6,29.19,SE,135,7.8,13.2,43,0.00,,,0.00,proprietary,2013-05-01 22:24:00,
2013-05-01 18:29:00,79.5,56.3,29.19,SE,133,9.0,12.3,44,0.00,,,0.00,proprietary,2013-05-01 22:29:00,
2013-05-01 18:34:00,79.4,56.0,29.19,SE,143,8.3,10.9,44,0.00,,,0.00,proprietary,2013-05-01 22:34:00,
2013-05-01 18:39:00,79.0,55.2,29.19,SE,126,6.5,8.0,43,0.00,,,0.00,proprietary,2013-05-01 22:39:00,
2013-05-01 18:44:00,79.1,55.3,29.19,SE,141,8.5,11.1,43,0.00,,,0.00,proprietary,2013-05-01 22:44:00,
2013-05-01 18:49:00,79.0,56.2,29.19,SE,136,5.2,7.1,45,0.00,,,0.00,proprietary,2013-05-01 22:49:00,
2013-05-01 18:54:00,78.8,55.4,29.19,ESE,123,5.4,8.5,44,0.00,,,0.00,proprietary,2013-05-01 22:54:00,
2013-05-01 18:59:00,78.4,55.0,29.19,ESE,104,3.7,5.9,44,0.00,,,0.00,proprietary,2013-05-01 22:59:00,
2013-05-01 19:04:00,78.4,55.4,29.19,SE,130,6.5,11.9,45,0.00,,,0.00,proprietary,2013-05-01 23:04:00,
2013-05-01 19:09:00,78.3,55.1,29.19,East,101,5.1,7.1,44,0.00,,,0.00,proprietary,2013-05-01 23:09:00,
2013-05-01 19:14:00,78.0,55.0,29.19,SE,130,4.1,5.1,45,0.00,,,0.00,proprietary,2013-05-01 23:14:00,
2013-05-01 19:19:00,77.8,55.2,29.19,ESE,114,3.0,4.0,45,0.00,,,0.00,proprietary,2013-05-01 23:19:00,
2013-05-01 19:24:00,77.5,55.2,29.19,SE,131,3.5,5.8,46,0.00,,,0.00,proprietary,2013-05-01 23:24:00,
2013-05-01 19:29:00,77.4,54.8,29.19,SE,132,5.8,6.7,45,0.00,,,0.00,proprietary,2013-05-01 23:29:00,
2013-05-01 19:34:00,77.2,54.5,29.19,ESE,119,4.8,6.1,45,0.00,,,0.00,proprietary,2013-05-01 23:34:00,
2013-05-01 19:39:00,76.9,54.3,29.19,ESE,114,5.0,9.2,45,0.00,,,0.00,proprietary,2013-05-01 23:39:00,
2013-05-01 19:44:00,76.6,54.5,29.20,SE,127,5.7,8.5,46,0.00,,,0.00,proprietary,2013-05-01 23:44:00,
2013-05-01 19:49:00,76.4,54.0,29.20,SE,132,5.3,7.1,45,0.00,,,0.00,proprietary,2013-05-01 23:49:00,
2013-05-01 19:54:00,76.1,54.0,29.20,ESE,121,6.8,10.8,46,0.00,,,0.00,proprietary,2013-05-01 23:54:00,
2013-05-01 19:59:00,75.8,53.8,29.20,SE,138,7.2,9.1,46,0.00,,,0.00,proprietary,2013-05-01 23:59:00,
2013-05-01 20:04:00,75.4,53.7,29.20,SE,134,6.2,8.6,46,0.00,,,0.00,proprietary,2013-05-02 00:04:00,
2013-05-01 20:09:00,75.2,53.7,29.20,SE,142,2.5,3.6,47,0.00,,,0.00,proprietary,2013-05-02 00:09:00,
2013-05-01 20:14:00,74.9,53.8,29.19,ESE,123,6.5,10.2,47,0.00,,,0.00,proprietary,2013-05-02 00:14:00,
2013-05-01 20:19:00,74.4,54.0,29.20,SE,130,3.7,5.7,48,0.00,,,0.00,proprietary,2013-05-02 00:19:00,
2013-05-01 20:24:00,73.8,54.2,29.20,SE,142,4.9,6.2,50,0.00,,,0.00,proprietary,2013-05-02 00:24:00,
2013-05-01 20:29:00,73.4,54.2,29.20,SE,138,5.1,5.6,51,0.00,,,0.00,proprietary,2013-05-02 00:29:00,
2013-05-01 20:34:00,72.8,54.3,29.20,SE,133,4.3,6.0,52,0.00,,,0.00,proprietary,2013-05-02 00:34:00,
2013-05-01 20:39:00,72.5,54.5,29.20,SE,125,3.9,5.1,53,0.00,,,0.00,proprietary,2013-05-02 00:39:00,
2013-05-01 20:44:00,72.0,54.5,29.20,SE,130,2.3,3.9,53,0.00,,,0.00,proprietary,2013-05-02 00:44:00,
2013-05-01 20:49:00,71.7,54.3,29.20,SE,127,3.6,4.4,54,0.00,,,0.00,proprietary,2013-05-02 00:49:00,
2013-05-01 20:54:00,71.0,54.5,29.20,SE,127,2.8,4.3,55,0.00,,,0.00,proprietary,2013-05-02 00:54:00,
2013-05-01 20:59:00,70.7,54.3,29.21,East,100,2.0,3.6,56,0.00,,,0.00,proprietary,2013-05-02 00:59:00,
2013-05-01 21:04:00,70.4,54.4,29.21,ESE,111,2.8,5.7,56,0.00,,,0.00,proprietary,2013-05-02 01:04:00,
2013-05-01 21:09:00,69.9,54.3,29.21,SE,126,1.0,2.3,57,0.00,,,0.00,proprietary,2013-05-02 01:09:00,
2013-05-01 21:14:00,69.7,54.3,29.21,ESE,121,0.5,1.8,57,0.00,,,0.00,proprietary,2013-05-02 01:14:00,
2013-05-01 21:19:00,69.3,54.2,29.21,SE,130,1.5,2.6,58,0.00,,,0.00,proprietary,2013-05-02 01:19:00,
2013-05-01 21:24:00,69.0,54.2,29.21,ESE,117,1.0,1.7,59,0.00,,,0.00,proprietary,2013-05-02 01:24:00,
2013-05-01 21:29:00,68.5,54.2,29.21,ESE,120,1.1,3.4,60,0.00,,,0.00,proprietary,2013-05-02 01:29:00,
2013-05-01 21:34:00,68.1,54.2,29.21,ESE,117,2.0,3.6,61,0.00,,,0.00,proprietary,2013-05-02 01:34:00,
2013-05-01 21:39:00,67.7,54.3,29.21,SE,140,5.4,8.1,62,0.00,,,0.00,proprietary,2013-05-02 01:39:00,
2013-05-01 21:44:00,67.3,54.3,29.22,SE,131,3.7,6.1,62,0.00,,,0.00,proprietary,2013-05-02 01:44:00,
2013-05-01 21:49:00,66.8,54.2,29.22,SE,139,6.3,8.8,63,0.00,,,0.00,proprietary,2013-05-02 01:49:00,
2013-05-01 21:54:00,66.5,54.1,29.22,SE,138,6.3,7.8,64,0.00,,,0.00,proprietary,2013-05-02 01:54:00,
2013-05-01 21:59:00,66.2,54.0,29.22,SE,138,5.6,6.9,64,0.00,,,0.00,proprietary,2013-05-02 01:59:00,
2013-05-01 22:04:00,65.8,53.9,29.22,SE,131,6.5,9.5,65,0.00,,,0.00,proprietary,2013-05-02 02:04:00,
2013-05-01 22:09:00,65.6,53.9,29.22,SE,139,5.3,8.2,65,0.00,,,0.00,proprietary,2013-05-02 02:09:00,
2013-05-01 22:14:00,65.4,53.8,29.22,SE,139,3.9,6.7,66,0.00,,,0.00,proprietary,2013-05-02 02:14:00,
2013-05-01 22:19:00,65.1,53.8,29.22,SE,136,2.7,3.3,66,0.00,,,0.00,proprietary,2013-05-02 02:19:00,
2013-05-01 22:24:00,64.5,53.8,29.22,SE,129,2.6,3.5,68,0.00,,,0.00,proprietary,2013-05-02 02:24:00,
2013-05-01 22:29:00,64.0,53.8,29.22,SE,145,2.9,3.3,69,0.00,,,0.00,proprietary,2013-05-02 02:29:00,
2013-05-01 22:34:00,63.5,53.9,29.23,SE,145,2.3,3.0,70,0.00,,,0.00,proprietary,2013-05-02 02:34:00,
2013-05-01 22:39:00,62.9,54.1,29.23,SSE,150,2.7,3.4,72,0.00,,,0.00,proprietary,2013-05-02 02:39:00,
2013-05-01 22:45:00,62.3,54.1,29.23,SE,144,3.5,4.0,74,0.00,,,0.00,proprietary,2013-05-02 02:45:00,
2013-05-01 22:50:00,62.1,54.2,29.23,SE,140,1.5,2.2,75,0.00,,,0.00,proprietary,2013-05-02 02:50:00,
2013-05-01 22:56:00,62.2,54.1,29.23,SE,137,1.8,2.5,74,0.00,,,0.00,proprietary,2013-05-02 02:56:00,
2013-05-01 23:01:00,61.7,53.9,29.23,SE,144,2.4,2.9,75,0.00,,,0.00,proprietary,2013-05-02 03:01:00,
2013-05-01 23:07:00,61.5,53.9,29.23,SE,134,1.6,2.6,76,0.00,,,0.00,proprietary,2013-05-02 03:07:00,
2013-05-01 23:12:00,61.5,53.7,29.23,SE,128,2.2,3.1,75,0.00,,,0.00,proprietary,2013-05-02 03:12:00,
2013-05-01 23:18:00,61.5,53.2,29.22,ESE,117,1.9,3.1,73,0.00,,,0.00,proprietary,2013-05-02 03:18:00,
2013-05-01 23:23:00,61.4,53.0,29.22,SE,134,2.6,3.5,73,0.00,,,0.00,proprietary,2013-05-02 03:23:00,
2013-05-01 23:28:00,61.2,52.9,29.22,SE,124,1.6,1.9,74,0.00,,,0.00,proprietary,2013-05-02 03:28:00,
2013-05-01 23:33:00,61.0,52.7,29.22,SE,135,0.7,1.6,74,0.00,,,0.00,proprietary,2013-05-02 03:33:00,
2013-05-01 23:38:00,60.6,52.7,29.22,SE,136,2.2,3.6,75,0.00,,,0.00,proprietary,2013-05-02 03:38:00,
2013-05-01 23:43:00,60.5,52.7,29.22,ESE,120,1.3,2.2,75,0.00,,,0.00,proprietary,2013-05-02 03:43:00,
2013-05-01 23:48:00,60.5,52.7,29.22,ESE,120,1.2,2.8,75,0.00,,,0.00,proprietary,2013-05-02 03:48:00,
2013-05-01 23:53:00,60.3,52.4,29.22,SE,124,1.2,2.3,75,0.00,,,0.00,proprietary,2013-05-02 03:53:00,
2013-05-01 23:58:00,60.0,52.3,29.22,SE,129,1.9,2.3,75,0.00,,,0.00,proprietary,2013-05-02 03:58:00,